sensor_id;sensor_type;location;lat;lon;timestamp;P1;durP1;ratioP1;P2;durP2;ratioP2
4630;SDS011;2328;48.170;11.602;2024-02-26T00:01:19;2.20;;;1.70;;
4630;SDS011;2328;48.170;11.602;2024-02-26T00:03:48;3.53;;;2.00;;
4630;SDS011;2328;48.170;11.602;2024-02-26T00:06:16;2.80;;;2.20;;
4630;SDS011;2328;48.170;11.602;2024-02-26T00:08:46;2.17;;;1.97;;
4630;SDS011;2328;48.170;11.602;2024-02-26T00:11:15;3.80;;;2.17;;
4630;SDS011;2328;48.170;11.602;2024-02-26T00:13:43;4.80;;;1.90;;
4630;SDS011;2328;48.170;11.602;2024-02-26T00:16:12;2.13;;;1.40;;
4630;SDS011;2328;48.170;11.602;2024-02-26T00:18:40;3.40;;;2.17;;
4630;SDS011;2328;48.170;11.602;2024-02-26T00:21:11;2.20;;;2.00;;
4630;SDS011;2328;48.170;11.602;2024-02-26T00:23:40;4.20;;;1.93;;
4630;SDS011;2328;48.170;11.602;2024-02-26T00:26:10;2.43;;;2.10;;
4630;SDS011;2328;48.170;11.602;2024-02-26T00:28:38;2.30;;;1.50;;
4630;SDS011;2328;48.170;11.602;2024-02-26T00:31:06;3.27;;;1.70;;
4630;SDS011;2328;48.170;11.602;2024-02-26T00:33:35;3.63;;;1.57;;
4630;SDS011;2328;48.170;11.602;2024-02-26T00:36:04;5.10;;;2.10;;
4630;SDS011;2328;48.170;11.602;2024-02-26T00:38:33;2.17;;;1.33;;
4630;SDS011;2328;48.170;11.602;2024-02-26T00:41:01;3.17;;;1.40;;
4630;SDS011;2328;48.170;11.602;2024-02-26T00:43:31;2.37;;;1.57;;
4630;SDS011;2328;48.170;11.602;2024-02-26T00:45:59;4.60;;;2.40;;
4630;SDS011;2328;48.170;11.602;2024-02-26T00:48:28;2.00;;;1.77;;
4630;SDS011;2328;48.170;11.602;2024-02-26T00:50:57;3.50;;;2.10;;
4630;SDS011;2328;48.170;11.602;2024-02-26T00:53:25;1.93;;;1.70;;
4630;SDS011;2328;48.170;11.602;2024-02-26T00:55:57;2.50;;;1.63;;
4630;SDS011;2328;48.170;11.602;2024-02-26T00:58:26;2.80;;;1.70;;
4630;SDS011;2328;48.170;11.602;2024-02-26T01:00:56;5.90;;;2.30;;
4630;SDS011;2328;48.170;11.602;2024-02-26T01:03:24;2.03;;;1.77;;
4630;SDS011;2328;48.170;11.602;2024-02-26T01:05:53;3.83;;;1.97;;
4630;SDS011;2328;48.170;11.602;2024-02-26T01:08:24;3.37;;;1.33;;
4630;SDS011;2328;48.170;11.602;2024-02-26T01:10:53;2.67;;;1.50;;
4630;SDS011;2328;48.170;11.602;2024-02-26T01:13:21;2.93;;;1.30;;
4630;SDS011;2328;48.170;11.602;2024-02-26T01:15:50;1.60;;;1.50;;
4630;SDS011;2328;48.170;11.602;2024-02-26T01:18:21;2.73;;;1.80;;
4630;SDS011;2328;48.170;11.602;2024-02-26T01:20:50;3.27;;;1.67;;
4630;SDS011;2328;48.170;11.602;2024-02-26T01:23:21;5.97;;;1.80;;
4630;SDS011;2328;48.170;11.602;2024-02-26T01:25:49;1.93;;;1.20;;
4630;SDS011;2328;48.170;11.602;2024-02-26T01:28:18;2.53;;;1.77;;
4630;SDS011;2328;48.170;11.602;2024-02-26T01:30:46;3.10;;;1.90;;
4630;SDS011;2328;48.170;11.602;2024-02-26T01:33:15;1.63;;;1.53;;
4630;SDS011;2328;48.170;11.602;2024-02-26T01:35:46;2.40;;;1.73;;
4630;SDS011;2328;48.170;11.602;2024-02-26T01:38:14;2.70;;;1.50;;
4630;SDS011;2328;48.170;11.602;2024-02-26T01:40:44;2.50;;;1.70;;
4630;SDS011;2328;48.170;11.602;2024-02-26T01:43:13;3.43;;;1.70;;
4630;SDS011;2328;48.170;11.602;2024-02-26T01:45:41;1.93;;;1.50;;
4630;SDS011;2328;48.170;11.602;2024-02-26T01:48:09;2.83;;;1.60;;
4630;SDS011;2328;48.170;11.602;2024-02-26T01:50:39;2.20;;;1.70;;
4630;SDS011;2328;48.170;11.602;2024-02-26T01:53:10;2.50;;;1.70;;
4630;SDS011;2328;48.170;11.602;2024-02-26T01:55:39;2.93;;;2.23;;
4630;SDS011;2328;48.170;11.602;2024-02-26T01:58:07;2.23;;;1.50;;
4630;SDS011;2328;48.170;11.602;2024-02-26T02:00:37;3.47;;;2.37;;
4630;SDS011;2328;48.170;11.602;2024-02-26T02:03:06;3.43;;;1.40;;
4630;SDS011;2328;48.170;11.602;2024-02-26T02:05:35;4.27;;;1.30;;
4630;SDS011;2328;48.170;11.602;2024-02-26T02:08:10;1.80;;;1.40;;
4630;SDS011;2328;48.170;11.602;2024-02-26T02:13:14;3.23;;;1.77;;
4630;SDS011;2328;48.170;11.602;2024-02-26T02:15:42;1.13;;;0.97;;
4630;SDS011;2328;48.170;11.602;2024-02-26T02:18:11;3.37;;;1.20;;
4630;SDS011;2328;48.170;11.602;2024-02-26T02:20:41;1.60;;;1.47;;
4630;SDS011;2328;48.170;11.602;2024-02-26T02:23:09;1.80;;;1.30;;
4630;SDS011;2328;48.170;11.602;2024-02-26T02:25:38;2.30;;;1.57;;
4630;SDS011;2328;48.170;11.602;2024-02-26T02:28:06;1.50;;;1.40;;
4630;SDS011;2328;48.170;11.602;2024-02-26T02:30:35;3.37;;;1.57;;
4630;SDS011;2328;48.170;11.602;2024-02-26T02:33:04;1.57;;;1.27;;
4630;SDS011;2328;48.170;11.602;2024-02-26T02:35:33;2.17;;;1.40;;
4630;SDS011;2328;48.170;11.602;2024-02-26T02:38:03;2.70;;;1.63;;
4630;SDS011;2328;48.170;11.602;2024-02-26T02:40:32;1.47;;;1.20;;
4630;SDS011;2328;48.170;11.602;2024-02-26T02:43:00;2.83;;;1.83;;
4630;SDS011;2328;48.170;11.602;2024-02-26T02:45:28;1.70;;;1.60;;
4630;SDS011;2328;48.170;11.602;2024-02-26T02:47:57;2.27;;;1.40;;
4630;SDS011;2328;48.170;11.602;2024-02-26T02:50:26;2.50;;;1.37;;
4630;SDS011;2328;48.170;11.602;2024-02-26T02:52:55;2.27;;;1.17;;
4630;SDS011;2328;48.170;11.602;2024-02-26T02:55:25;1.80;;;1.30;;
4630;SDS011;2328;48.170;11.602;2024-02-26T02:57:54;2.40;;;1.37;;
4630;SDS011;2328;48.170;11.602;2024-02-26T03:00:23;1.00;;;0.90;;
4630;SDS011;2328;48.170;11.602;2024-02-26T03:02:52;2.10;;;1.23;;
4630;SDS011;2328;48.170;11.602;2024-02-26T03:05:20;2.30;;;1.13;;
4630;SDS011;2328;48.170;11.602;2024-02-26T03:07:48;1.63;;;1.03;;
4630;SDS011;2328;48.170;11.602;2024-02-26T03:10:17;2.30;;;1.30;;
4630;SDS011;2328;48.170;11.602;2024-02-26T03:12:47;2.40;;;1.33;;
4630;SDS011;2328;48.170;11.602;2024-02-26T03:15:19;1.93;;;1.23;;
4630;SDS011;2328;48.170;11.602;2024-02-26T03:17:48;3.83;;;1.37;;
4630;SDS011;2328;48.170;11.602;2024-02-26T03:20:17;4.27;;;1.47;;
4630;SDS011;2328;48.170;11.602;2024-02-26T03:22:49;1.77;;;1.43;;
4630;SDS011;2328;48.170;11.602;2024-02-26T03:25:17;2.00;;;1.27;;
4630;SDS011;2328;48.170;11.602;2024-02-26T03:27:47;2.43;;;1.60;;
4630;SDS011;2328;48.170;11.602;2024-02-26T03:30:15;1.87;;;1.23;;
4630;SDS011;2328;48.170;11.602;2024-02-26T03:32:44;1.40;;;0.87;;
4630;SDS011;2328;48.170;11.602;2024-02-26T03:35:13;4.00;;;1.83;;
4630;SDS011;2328;48.170;11.602;2024-02-26T03:37:42;1.37;;;1.20;;
4630;SDS011;2328;48.170;11.602;2024-02-26T03:40:11;4.40;;;1.80;;
4630;SDS011;2328;48.170;11.602;2024-02-26T03:42:41;2.47;;;1.87;;
4630;SDS011;2328;48.170;11.602;2024-02-26T03:45:12;1.73;;;1.00;;
4630;SDS011;2328;48.170;11.602;2024-02-26T03:47:40;0.97;;;0.87;;
4630;SDS011;2328;48.170;11.602;2024-02-26T03:50:09;2.80;;;1.30;;
4630;SDS011;2328;48.170;11.602;2024-02-26T03:52:37;1.50;;;1.10;;
4630;SDS011;2328;48.170;11.602;2024-02-26T03:55:06;3.37;;;1.40;;
4630;SDS011;2328;48.170;11.602;2024-02-26T03:57:36;3.37;;;1.20;;
4630;SDS011;2328;48.170;11.602;2024-02-26T04:00:05;1.33;;;1.20;;
4630;SDS011;2328;48.170;11.602;2024-02-26T04:02:36;1.10;;;0.90;;
4630;SDS011;2328;48.170;11.602;2024-02-26T04:05:08;1.20;;;1.20;;
4630;SDS011;2328;48.170;11.602;2024-02-26T04:07:37;0.80;;;0.80;;
4630;SDS011;2328;48.170;11.602;2024-02-26T04:10:08;2.13;;;1.63;;
4630;SDS011;2328;48.170;11.602;2024-02-26T04:12:38;2.33;;;1.10;;
4630;SDS011;2328;48.170;11.602;2024-02-26T04:15:08;1.70;;;1.50;;
4630;SDS011;2328;48.170;11.602;2024-02-26T04:17:39;1.20;;;1.10;;
4630;SDS011;2328;48.170;11.602;2024-02-26T04:20:12;2.17;;;1.47;;
4630;SDS011;2328;48.170;11.602;2024-02-26T04:22:42;2.17;;;1.30;;
4630;SDS011;2328;48.170;11.602;2024-02-26T04:25:11;1.70;;;1.43;;
4630;SDS011;2328;48.170;11.602;2024-02-26T04:27:40;2.20;;;1.20;;
4630;SDS011;2328;48.170;11.602;2024-02-26T04:30:08;1.57;;;1.20;;
4630;SDS011;2328;48.170;11.602;2024-02-26T04:32:39;3.60;;;1.50;;
4630;SDS011;2328;48.170;11.602;2024-02-26T04:35:08;2.37;;;1.13;;
4630;SDS011;2328;48.170;11.602;2024-02-26T04:37:37;1.50;;;1.40;;
4630;SDS011;2328;48.170;11.602;2024-02-26T04:40:06;1.10;;;1.00;;
4630;SDS011;2328;48.170;11.602;2024-02-26T04:42:36;8.00;;;1.63;;
4630;SDS011;2328;48.170;11.602;2024-02-26T04:45:04;1.60;;;1.20;;
4630;SDS011;2328;48.170;11.602;2024-02-26T04:47:35;2.20;;;1.53;;
4630;SDS011;2328;48.170;11.602;2024-02-26T04:50:06;1.30;;;0.80;;
4630;SDS011;2328;48.170;11.602;2024-02-26T04:52:35;1.20;;;0.90;;
4630;SDS011;2328;48.170;11.602;2024-02-26T04:55:04;1.37;;;1.27;;
4630;SDS011;2328;48.170;11.602;2024-02-26T04:57:32;2.83;;;1.53;;
4630;SDS011;2328;48.170;11.602;2024-02-26T05:00:02;1.53;;;1.10;;
4630;SDS011;2328;48.170;11.602;2024-02-26T05:02:32;2.07;;;0.80;;
4630;SDS011;2328;48.170;11.602;2024-02-26T05:05:06;2.90;;;1.27;;
4630;SDS011;2328;48.170;11.602;2024-02-26T05:07:39;3.30;;;1.27;;
4630;SDS011;2328;48.170;11.602;2024-02-26T05:10:09;2.40;;;1.07;;
4630;SDS011;2328;48.170;11.602;2024-02-26T05:12:37;5.47;;;1.47;;
4630;SDS011;2328;48.170;11.602;2024-02-26T05:15:09;1.00;;;0.90;;
4630;SDS011;2328;48.170;11.602;2024-02-26T05:17:39;0.90;;;0.80;;
4630;SDS011;2328;48.170;11.602;2024-02-26T05:20:09;1.50;;;1.40;;
4630;SDS011;2328;48.170;11.602;2024-02-26T05:22:38;2.37;;;1.50;;
4630;SDS011;2328;48.170;11.602;2024-02-26T05:25:07;1.40;;;1.23;;
4630;SDS011;2328;48.170;11.602;2024-02-26T05:27:36;1.67;;;1.10;;
4630;SDS011;2328;48.170;11.602;2024-02-26T05:30:04;1.37;;;1.10;;
4630;SDS011;2328;48.170;11.602;2024-02-26T05:32:34;1.30;;;1.17;;
4630;SDS011;2328;48.170;11.602;2024-02-26T05:35:06;2.00;;;1.10;;
4630;SDS011;2328;48.170;11.602;2024-02-26T05:37:39;2.27;;;1.10;;
4630;SDS011;2328;48.170;11.602;2024-02-26T05:40:07;1.57;;;1.00;;
4630;SDS011;2328;48.170;11.602;2024-02-26T05:42:36;3.67;;;3.03;;
4630;SDS011;2328;48.170;11.602;2024-02-26T05:45:05;2.30;;;1.47;;
4630;SDS011;2328;48.170;11.602;2024-02-26T05:47:35;3.10;;;0.77;;
4630;SDS011;2328;48.170;11.602;2024-02-26T05:50:11;1.97;;;1.13;;
4630;SDS011;2328;48.170;11.602;2024-02-26T05:52:42;1.10;;;0.97;;
4630;SDS011;2328;48.170;11.602;2024-02-26T05:55:12;1.00;;;0.83;;
4630;SDS011;2328;48.170;11.602;2024-02-26T05:57:41;0.97;;;0.90;;
4630;SDS011;2328;48.170;11.602;2024-02-26T06:00:09;2.07;;;1.07;;
4630;SDS011;2328;48.170;11.602;2024-02-26T06:02:41;0.93;;;0.93;;
4630;SDS011;2328;48.170;11.602;2024-02-26T06:05:11;2.40;;;1.07;;
4630;SDS011;2328;48.170;11.602;2024-02-26T06:07:40;0.80;;;0.80;;
4630;SDS011;2328;48.170;11.602;2024-02-26T06:10:08;1.67;;;1.33;;
4630;SDS011;2328;48.170;11.602;2024-02-26T06:12:40;2.80;;;1.40;;
4630;SDS011;2328;48.170;11.602;2024-02-26T06:15:08;2.10;;;1.10;;
4630;SDS011;2328;48.170;11.602;2024-02-26T06:17:38;1.70;;;0.70;;
4630;SDS011;2328;48.170;11.602;2024-02-26T06:20:07;3.13;;;0.93;;
4630;SDS011;2328;48.170;11.602;2024-02-26T06:22:42;1.20;;;0.90;;
4630;SDS011;2328;48.170;11.602;2024-02-26T06:25:11;1.40;;;0.83;;
4630;SDS011;2328;48.170;11.602;2024-02-26T06:27:40;2.20;;;0.87;;
4630;SDS011;2328;48.170;11.602;2024-02-26T06:30:09;1.50;;;0.87;;
4630;SDS011;2328;48.170;11.602;2024-02-26T06:32:39;4.93;;;1.30;;
4630;SDS011;2328;48.170;11.602;2024-02-26T06:35:12;2.80;;;1.07;;
4630;SDS011;2328;48.170;11.602;2024-02-26T06:37:42;1.63;;;0.70;;
4630;SDS011;2328;48.170;11.602;2024-02-26T06:40:13;3.73;;;1.40;;
4630;SDS011;2328;48.170;11.602;2024-02-26T06:42:42;1.10;;;0.90;;
4630;SDS011;2328;48.170;11.602;2024-02-26T06:45:14;1.30;;;0.83;;
4630;SDS011;2328;48.170;11.602;2024-02-26T06:47:43;2.20;;;1.40;;
4630;SDS011;2328;48.170;11.602;2024-02-26T06:50:15;2.57;;;1.20;;
4630;SDS011;2328;48.170;11.602;2024-02-26T06:52:51;1.63;;;1.20;;
4630;SDS011;2328;48.170;11.602;2024-02-26T06:55:34;1.20;;;1.07;;
4630;SDS011;2328;48.170;11.602;2024-02-26T06:58:07;1.03;;;0.90;;
4630;SDS011;2328;48.170;11.602;2024-02-26T07:01:04;3.00;;;0.77;;
4630;SDS011;2328;48.170;11.602;2024-02-26T07:03:53;1.20;;;1.17;;
4630;SDS011;2328;48.170;11.602;2024-02-26T07:06:34;0.80;;;0.80;;
4630;SDS011;2328;48.170;11.602;2024-02-26T07:09:08;1.67;;;1.00;;
4630;SDS011;2328;48.170;11.602;2024-02-26T07:11:42;6.53;;;1.30;;
4630;SDS011;2328;48.170;11.602;2024-02-26T07:14:17;1.30;;;1.00;;
4630;SDS011;2328;48.170;11.602;2024-02-26T07:16:46;2.20;;;1.00;;
4630;SDS011;2328;48.170;11.602;2024-02-26T07:19:14;2.40;;;1.23;;
4630;SDS011;2328;48.170;11.602;2024-02-26T07:21:44;1.47;;;1.37;;
4630;SDS011;2328;48.170;11.602;2024-02-26T07:24:14;1.93;;;0.93;;
4630;SDS011;2328;48.170;11.602;2024-02-26T07:26:45;1.50;;;0.80;;
4630;SDS011;2328;48.170;11.602;2024-02-26T07:29:14;1.17;;;1.07;;
4630;SDS011;2328;48.170;11.602;2024-02-26T07:31:42;12.20;;;1.13;;
4630;SDS011;2328;48.170;11.602;2024-02-26T07:34:26;2.50;;;0.80;;
4630;SDS011;2328;48.170;11.602;2024-02-26T07:36:56;1.63;;;1.03;;
4630;SDS011;2328;48.170;11.602;2024-02-26T07:39:28;1.50;;;1.03;;
4630;SDS011;2328;48.170;11.602;2024-02-26T07:41:56;1.03;;;1.03;;
4630;SDS011;2328;48.170;11.602;2024-02-26T07:44:25;3.10;;;1.20;;
4630;SDS011;2328;48.170;11.602;2024-02-26T07:46:53;16.33;;;1.63;;
4630;SDS011;2328;48.170;11.602;2024-02-26T07:49:36;1.43;;;1.03;;
4630;SDS011;2328;48.170;11.602;2024-02-26T07:52:05;6.40;;;1.47;;
4630;SDS011;2328;48.170;11.602;2024-02-26T07:54:36;1.17;;;0.80;;
4630;SDS011;2328;48.170;11.602;2024-02-26T07:57:04;1.97;;;1.20;;
4630;SDS011;2328;48.170;11.602;2024-02-26T07:59:33;3.40;;;0.80;;
4630;SDS011;2328;48.170;11.602;2024-02-26T08:02:01;2.70;;;1.40;;
4630;SDS011;2328;48.170;11.602;2024-02-26T08:04:34;1.37;;;1.10;;
4630;SDS011;2328;48.170;11.602;2024-02-26T08:07:03;1.83;;;1.30;;
4630;SDS011;2328;48.170;11.602;2024-02-26T08:09:31;1.47;;;0.87;;
4630;SDS011;2328;48.170;11.602;2024-02-26T08:12:02;1.40;;;1.30;;
4630;SDS011;2328;48.170;11.602;2024-02-26T08:14:32;1.47;;;1.10;;
4630;SDS011;2328;48.170;11.602;2024-02-26T08:17:00;2.00;;;1.13;;
4630;SDS011;2328;48.170;11.602;2024-02-26T08:19:31;1.00;;;0.90;;
4630;SDS011;2328;48.170;11.602;2024-02-26T08:22:02;2.13;;;0.80;;
4630;SDS011;2328;48.170;11.602;2024-02-26T08:24:36;20.73;;;1.30;;
4630;SDS011;2328;48.170;11.602;2024-02-26T08:27:06;1.23;;;1.10;;
4630;SDS011;2328;48.170;11.602;2024-02-26T08:29:35;3.97;;;1.10;;
4630;SDS011;2328;48.170;11.602;2024-02-26T08:32:03;1.37;;;1.27;;
4630;SDS011;2328;48.170;11.602;2024-02-26T08:34:33;20.67;;;1.20;;
4630;SDS011;2328;48.170;11.602;2024-02-26T08:37:02;1.23;;;0.90;;
4630;SDS011;2328;48.170;11.602;2024-02-26T08:39:30;1.20;;;1.13;;
4630;SDS011;2328;48.170;11.602;2024-02-26T08:41:59;1.20;;;1.10;;
4630;SDS011;2328;48.170;11.602;2024-02-26T08:44:29;2.27;;;0.80;;
4630;SDS011;2328;48.170;11.602;2024-02-26T08:46:57;0.80;;;0.80;;
4630;SDS011;2328;48.170;11.602;2024-02-26T08:49:28;1.13;;;1.03;;
4630;SDS011;2328;48.170;11.602;2024-02-26T08:51:56;1.67;;;0.97;;
4630;SDS011;2328;48.170;11.602;2024-02-26T08:54:25;1.33;;;1.03;;
4630;SDS011;2328;48.170;11.602;2024-02-26T08:56:55;1.87;;;0.90;;
4630;SDS011;2328;48.170;11.602;2024-02-26T08:59:23;3.50;;;1.10;;
4630;SDS011;2328;48.170;11.602;2024-02-26T09:01:53;1.10;;;1.00;;
4630;SDS011;2328;48.170;11.602;2024-02-26T09:04:22;0.93;;;0.70;;
4630;SDS011;2328;48.170;11.602;2024-02-26T09:06:50;2.43;;;1.40;;
4630;SDS011;2328;48.170;11.602;2024-02-26T09:09:18;1.10;;;1.00;;
4630;SDS011;2328;48.170;11.602;2024-02-26T09:11:48;1.67;;;1.13;;
4630;SDS011;2328;48.170;11.602;2024-02-26T09:14:18;3.77;;;1.60;;
4630;SDS011;2328;48.170;11.602;2024-02-26T09:16:47;1.10;;;1.00;;
4630;SDS011;2328;48.170;11.602;2024-02-26T09:19:17;1.07;;;0.97;;
4630;SDS011;2328;48.170;11.602;2024-02-26T09:21:45;2.30;;;0.93;;
4630;SDS011;2328;48.170;11.602;2024-02-26T09:24:13;0.80;;;0.80;;
4630;SDS011;2328;48.170;11.602;2024-02-26T09:26:42;1.10;;;1.00;;
4630;SDS011;2328;48.170;11.602;2024-02-26T09:29:10;1.20;;;0.90;;
4630;SDS011;2328;48.170;11.602;2024-02-26T09:31:39;1.77;;;1.30;;
4630;SDS011;2328;48.170;11.602;2024-02-26T09:34:07;1.87;;;0.93;;
4630;SDS011;2328;48.170;11.602;2024-02-26T09:36:37;1.23;;;1.10;;
4630;SDS011;2328;48.170;11.602;2024-02-26T09:39:05;2.20;;;1.13;;
4630;SDS011;2328;48.170;11.602;2024-02-26T09:41:38;1.17;;;1.07;;
4630;SDS011;2328;48.170;11.602;2024-02-26T09:44:07;1.50;;;1.07;;
4630;SDS011;2328;48.170;11.602;2024-02-26T09:46:37;2.97;;;1.43;;
4630;SDS011;2328;48.170;11.602;2024-02-26T09:49:05;1.33;;;0.97;;
4630;SDS011;2328;48.170;11.602;2024-02-26T09:51:37;2.90;;;1.40;;
4630;SDS011;2328;48.170;11.602;2024-02-26T09:54:07;1.33;;;1.10;;
4630;SDS011;2328;48.170;11.602;2024-02-26T09:56:38;1.30;;;1.10;;
4630;SDS011;2328;48.170;11.602;2024-02-26T09:59:21;5.33;;;1.43;;
4630;SDS011;2328;48.170;11.602;2024-02-26T10:01:50;1.83;;;1.57;;
4630;SDS011;2328;48.170;11.602;2024-02-26T10:04:19;1.20;;;1.07;;
4630;SDS011;2328;48.170;11.602;2024-02-26T10:06:52;2.03;;;1.33;;
4630;SDS011;2328;48.170;11.602;2024-02-26T10:09:22;1.27;;;1.20;;
4630;SDS011;2328;48.170;11.602;2024-02-26T10:11:51;1.90;;;1.00;;
4630;SDS011;2328;48.170;11.602;2024-02-26T10:14:20;2.80;;;1.00;;
4630;SDS011;2328;48.170;11.602;2024-02-26T10:16:49;2.73;;;1.03;;
4630;SDS011;2328;48.170;11.602;2024-02-26T10:19:24;2.60;;;1.50;;
4630;SDS011;2328;48.170;11.602;2024-02-26T10:21:57;1.13;;;1.00;;
4630;SDS011;2328;48.170;11.602;2024-02-26T10:24:27;1.23;;;1.13;;
4630;SDS011;2328;48.170;11.602;2024-02-26T10:26:57;1.50;;;0.80;;
4630;SDS011;2328;48.170;11.602;2024-02-26T10:29:27;5.77;;;1.10;;
4630;SDS011;2328;48.170;11.602;2024-02-26T10:31:55;0.77;;;0.77;;
4630;SDS011;2328;48.170;11.602;2024-02-26T10:34:24;2.10;;;0.90;;
4630;SDS011;2328;48.170;11.602;2024-02-26T10:36:53;1.23;;;0.77;;
4630;SDS011;2328;48.170;11.602;2024-02-26T10:39:23;2.70;;;1.20;;
4630;SDS011;2328;48.170;11.602;2024-02-26T10:41:52;0.70;;;0.67;;
4630;SDS011;2328;48.170;11.602;2024-02-26T10:44:20;2.73;;;0.90;;
4630;SDS011;2328;48.170;11.602;2024-02-26T10:46:49;1.30;;;0.70;;
4630;SDS011;2328;48.170;11.602;2024-02-26T10:49:18;1.20;;;0.70;;
4630;SDS011;2328;48.170;11.602;2024-02-26T10:51:50;4.93;;;0.73;;
4630;SDS011;2328;48.170;11.602;2024-02-26T10:54:25;1.27;;;0.93;;
4630;SDS011;2328;48.170;11.602;2024-02-26T10:56:55;0.80;;;0.70;;
4630;SDS011;2328;48.170;11.602;2024-02-26T10:59:25;0.83;;;0.43;;
4630;SDS011;2328;48.170;11.602;2024-02-26T11:01:54;0.70;;;0.60;;
4630;SDS011;2328;48.170;11.602;2024-02-26T11:04:23;0.80;;;0.47;;
4630;SDS011;2328;48.170;11.602;2024-02-26T11:07:04;2.80;;;0.60;;
4630;SDS011;2328;48.170;11.602;2024-02-26T11:09:43;0.70;;;0.70;;
4630;SDS011;2328;48.170;11.602;2024-02-26T11:12:18;0.60;;;0.53;;
4630;SDS011;2328;48.170;11.602;2024-02-26T11:14:47;1.70;;;0.60;;
4630;SDS011;2328;48.170;11.602;2024-02-26T11:17:21;0.87;;;0.60;;
4630;SDS011;2328;48.170;11.602;2024-02-26T11:19:53;0.80;;;0.53;;
4630;SDS011;2328;48.170;11.602;2024-02-26T11:22:24;1.03;;;0.53;;
4630;SDS011;2328;48.170;11.602;2024-02-26T11:24:56;1.53;;;0.50;;
4630;SDS011;2328;48.170;11.602;2024-02-26T11:27:28;1.13;;;0.60;;
4630;SDS011;2328;48.170;11.602;2024-02-26T11:30:12;0.57;;;0.43;;
4630;SDS011;2328;48.170;11.602;2024-02-26T11:32:44;1.20;;;0.77;;
4630;SDS011;2328;48.170;11.602;2024-02-26T11:35:17;0.70;;;0.60;;
4630;SDS011;2328;48.170;11.602;2024-02-26T11:37:51;1.03;;;0.50;;
4630;SDS011;2328;48.170;11.602;2024-02-26T11:40:27;0.50;;;0.40;;
4630;SDS011;2328;48.170;11.602;2024-02-26T11:42:59;0.80;;;0.63;;
4630;SDS011;2328;48.170;11.602;2024-02-26T11:48:22;0.80;;;0.50;;
4630;SDS011;2328;48.170;11.602;2024-02-26T11:50:53;0.90;;;0.60;;
4630;SDS011;2328;48.170;11.602;2024-02-26T11:53:36;0.57;;;0.40;;
4630;SDS011;2328;48.170;11.602;2024-02-26T11:56:23;0.70;;;0.60;;
4630;SDS011;2328;48.170;11.602;2024-02-26T11:58:58;0.60;;;0.40;;
4630;SDS011;2328;48.170;11.602;2024-02-26T12:01:38;4.83;;;0.50;;
4630;SDS011;2328;48.170;11.602;2024-02-26T12:04:07;0.90;;;0.50;;
4630;SDS011;2328;48.170;11.602;2024-02-26T12:06:40;0.60;;;0.40;;
4630;SDS011;2328;48.170;11.602;2024-02-26T12:09:13;1.20;;;0.50;;
4630;SDS011;2328;48.170;11.602;2024-02-26T12:11:58;1.13;;;0.60;;
4630;SDS011;2328;48.170;11.602;2024-02-26T12:14:28;3.07;;;0.70;;
4630;SDS011;2328;48.170;11.602;2024-02-26T12:16:56;0.70;;;0.53;;
4630;SDS011;2328;48.170;11.602;2024-02-26T12:19:26;1.00;;;0.40;;
4630;SDS011;2328;48.170;11.602;2024-02-26T12:21:57;0.63;;;0.50;;
4630;SDS011;2328;48.170;11.602;2024-02-26T12:24:27;1.70;;;0.50;;
4630;SDS011;2328;48.170;11.602;2024-02-26T12:26:55;1.60;;;0.67;;
4630;SDS011;2328;48.170;11.602;2024-02-26T12:29:29;0.80;;;0.70;;
4630;SDS011;2328;48.170;11.602;2024-02-26T12:31:57;0.60;;;0.60;;
4630;SDS011;2328;48.170;11.602;2024-02-26T12:34:25;1.00;;;0.80;;
4630;SDS011;2328;48.170;11.602;2024-02-26T12:37:02;0.80;;;0.80;;
4630;SDS011;2328;48.170;11.602;2024-02-26T12:39:36;2.13;;;0.77;;
4630;SDS011;2328;48.170;11.602;2024-02-26T12:42:06;1.10;;;1.00;;
4630;SDS011;2328;48.170;11.602;2024-02-26T12:44:41;2.00;;;0.80;;
4630;SDS011;2328;48.170;11.602;2024-02-26T12:47:18;1.20;;;0.80;;
4630;SDS011;2328;48.170;11.602;2024-02-26T12:49:49;0.80;;;0.50;;
4630;SDS011;2328;48.170;11.602;2024-02-26T12:52:21;3.10;;;1.13;;
4630;SDS011;2328;48.170;11.602;2024-02-26T12:54:50;0.83;;;0.80;;
4630;SDS011;2328;48.170;11.602;2024-02-26T12:57:19;1.17;;;1.00;;
4630;SDS011;2328;48.170;11.602;2024-02-26T12:59:50;1.67;;;0.93;;
4630;SDS011;2328;48.170;11.602;2024-02-26T13:02:18;2.53;;;0.80;;
4630;SDS011;2328;48.170;11.602;2024-02-26T13:04:48;1.00;;;0.77;;
4630;SDS011;2328;48.170;11.602;2024-02-26T13:07:17;0.97;;;0.90;;
4630;SDS011;2328;48.170;11.602;2024-02-26T13:09:46;1.87;;;1.50;;
4630;SDS011;2328;48.170;11.602;2024-02-26T13:12:15;0.83;;;0.70;;
4630;SDS011;2328;48.170;11.602;2024-02-26T13:14:44;1.80;;;1.20;;
4630;SDS011;2328;48.170;11.602;2024-02-26T13:17:14;1.53;;;1.20;;
4630;SDS011;2328;48.170;11.602;2024-02-26T13:19:51;1.57;;;1.00;;
4630;SDS011;2328;48.170;11.602;2024-02-26T13:22:20;1.70;;;1.17;;
4630;SDS011;2328;48.170;11.602;2024-02-26T13:24:56;2.13;;;0.93;;
4630;SDS011;2328;48.170;11.602;2024-02-26T13:27:28;0.87;;;0.80;;
4630;SDS011;2328;48.170;11.602;2024-02-26T13:30:04;2.60;;;1.10;;
4630;SDS011;2328;48.170;11.602;2024-02-26T13:32:35;1.07;;;0.60;;
4630;SDS011;2328;48.170;11.602;2024-02-26T13:35:06;0.80;;;0.60;;
4630;SDS011;2328;48.170;11.602;2024-02-26T13:37:39;0.70;;;0.60;;
4630;SDS011;2328;48.170;11.602;2024-02-26T13:40:10;1.47;;;0.63;;
4630;SDS011;2328;48.170;11.602;2024-02-26T13:42:43;0.70;;;0.50;;
4630;SDS011;2328;48.170;11.602;2024-02-26T13:45:12;0.70;;;0.50;;
4630;SDS011;2328;48.170;11.602;2024-02-26T13:47:42;0.80;;;0.50;;
4630;SDS011;2328;48.170;11.602;2024-02-26T13:50:11;0.70;;;0.53;;
4630;SDS011;2328;48.170;11.602;2024-02-26T13:52:40;0.80;;;0.60;;
4630;SDS011;2328;48.170;11.602;2024-02-26T13:55:09;0.90;;;0.60;;
4630;SDS011;2328;48.170;11.602;2024-02-26T13:57:38;0.60;;;0.43;;
4630;SDS011;2328;48.170;11.602;2024-02-26T14:00:08;0.50;;;0.40;;
4630;SDS011;2328;48.170;11.602;2024-02-26T14:02:38;0.67;;;0.50;;
4630;SDS011;2328;48.170;11.602;2024-02-26T14:05:11;1.57;;;0.60;;
4630;SDS011;2328;48.170;11.602;2024-02-26T14:07:40;0.60;;;0.50;;
4630;SDS011;2328;48.170;11.602;2024-02-26T14:10:11;1.10;;;0.83;;
4630;SDS011;2328;48.170;11.602;2024-02-26T14:12:42;1.43;;;0.70;;
4630;SDS011;2328;48.170;11.602;2024-02-26T14:15:11;2.13;;;0.77;;
4630;SDS011;2328;48.170;11.602;2024-02-26T14:17:39;2.40;;;0.90;;
4630;SDS011;2328;48.170;11.602;2024-02-26T14:20:11;1.00;;;0.83;;
4630;SDS011;2328;48.170;11.602;2024-02-26T14:22:45;1.63;;;1.20;;
4630;SDS011;2328;48.170;11.602;2024-02-26T14:25:17;2.40;;;0.90;;
4630;SDS011;2328;48.170;11.602;2024-02-26T14:27:46;1.20;;;0.93;;
4630;SDS011;2328;48.170;11.602;2024-02-26T14:30:15;0.87;;;0.70;;
4630;SDS011;2328;48.170;11.602;2024-02-26T14:32:46;1.00;;;0.80;;
4630;SDS011;2328;48.170;11.602;2024-02-26T14:35:17;1.57;;;0.60;;
4630;SDS011;2328;48.170;11.602;2024-02-26T14:37:46;1.17;;;0.90;;
4630;SDS011;2328;48.170;11.602;2024-02-26T14:40:15;0.70;;;0.70;;
4630;SDS011;2328;48.170;11.602;2024-02-26T14:42:45;0.70;;;0.70;;
4630;SDS011;2328;48.170;11.602;2024-02-26T14:45:14;0.83;;;0.80;;
4630;SDS011;2328;48.170;11.602;2024-02-26T14:47:43;1.47;;;0.90;;
4630;SDS011;2328;48.170;11.602;2024-02-26T14:50:22;0.80;;;0.80;;
4630;SDS011;2328;48.170;11.602;2024-02-26T14:52:53;5.03;;;0.70;;
4630;SDS011;2328;48.170;11.602;2024-02-26T14:55:22;1.63;;;0.90;;
4630;SDS011;2328;48.170;11.602;2024-02-26T14:57:51;1.00;;;0.80;;
4630;SDS011;2328;48.170;11.602;2024-02-26T15:00:19;0.70;;;0.57;;
4630;SDS011;2328;48.170;11.602;2024-02-26T15:02:48;0.70;;;0.70;;
4630;SDS011;2328;48.170;11.602;2024-02-26T15:05:18;2.03;;;1.00;;
4630;SDS011;2328;48.170;11.602;2024-02-26T15:07:48;1.17;;;0.70;;
4630;SDS011;2328;48.170;11.602;2024-02-26T15:10:16;0.83;;;0.70;;
4630;SDS011;2328;48.170;11.602;2024-02-26T15:12:45;0.80;;;0.80;;
4630;SDS011;2328;48.170;11.602;2024-02-26T15:15:14;0.60;;;0.50;;
4630;SDS011;2328;48.170;11.602;2024-02-26T15:17:43;0.80;;;0.60;;
4630;SDS011;2328;48.170;11.602;2024-02-26T15:20:20;0.60;;;0.60;;
4630;SDS011;2328;48.170;11.602;2024-02-26T15:22:52;1.40;;;0.57;;
4630;SDS011;2328;48.170;11.602;2024-02-26T15:25:21;0.70;;;0.60;;